sensor_id;sensor_type;location;lat;lon;timestamp;P1;durP1;ratioP1;P2;durP2;ratioP2
37284;SDS011;23172;53.550;9.964;2023-10-09T00:01:43;1961.68;;;585.38;;
37284;SDS011;23172;53.550;9.964;2023-10-09T00:06:47;1679.72;;;681.88;;
37284;SDS011;23172;53.550;9.964;2023-10-09T00:11:49;1324.10;;;544.45;;
37284;SDS011;23172;53.550;9.964;2023-10-09T00:16:57;790.30;;;406.50;;
37284;SDS011;23172;53.550;9.964;2023-10-09T00:22:18;940.58;;;464.30;;
37284;SDS011;23172;53.550;9.964;2023-10-09T00:27:26;1472.28;;;520.28;;
37284;SDS011;23172;53.550;9.964;2023-10-09T00:32:31;1648.03;;;625.67;;
37284;SDS011;23172;53.550;9.964;2023-10-09T00:37:35;858.90;;;342.48;;
37284;SDS011;23172;53.550;9.964;2023-10-09T00:42:37;464.67;;;204.18;;
37284;SDS011;23172;53.550;9.964;2023-10-09T00:47:39;599.42;;;236.02;;
37284;SDS011;23172;53.550;9.964;2023-10-09T00:52:45;514.15;;;178.43;;
37284;SDS011;23172;53.550;9.964;2023-10-09T00:57:51;426.35;;;182.35;;
37284;SDS011;23172;53.550;9.964;2023-10-09T01:03:00;717.53;;;265.02;;
37284;SDS011;23172;53.550;9.964;2023-10-09T01:08:20;1798.10;;;536.95;;
37284;SDS011;23172;53.550;9.964;2023-10-09T01:13:29;1439.85;;;522.78;;
37284;SDS011;23172;53.550;9.964;2023-10-09T01:18:39;1576.82;;;441.80;;
37284;SDS011;23172;53.550;9.964;2023-10-09T01:23:43;1676.32;;;481.75;;
37284;SDS011;23172;53.550;9.964;2023-10-09T01:29:03;1999.90;;;542.53;;
37284;SDS011;23172;53.550;9.964;2023-10-09T01:34:10;1957.72;;;560.88;;
37284;SDS011;23172;53.550;9.964;2023-10-09T01:39:16;1696.93;;;556.60;;
37284;SDS011;23172;53.550;9.964;2023-10-09T01:44:24;1287.68;;;442.90;;
37284;SDS011;23172;53.550;9.964;2023-10-09T01:49:28;1219.82;;;399.95;;
37284;SDS011;23172;53.550;9.964;2023-10-09T01:54:34;1231.18;;;464.13;;
37284;SDS011;23172;53.550;9.964;2023-10-09T01:59:38;968.78;;;337.38;;
37284;SDS011;23172;53.550;9.964;2023-10-09T02:04:43;1358.88;;;508.75;;
37284;SDS011;23172;53.550;9.964;2023-10-09T02:09:47;907.53;;;381.23;;
37284;SDS011;23172;53.550;9.964;2023-10-09T02:14:49;1039.43;;;424.55;;
37284;SDS011;23172;53.550;9.964;2023-10-09T02:19:56;849.58;;;363.30;;
37284;SDS011;23172;53.550;9.964;2023-10-09T02:25:01;967.75;;;429.23;;
37284;SDS011;23172;53.550;9.964;2023-10-09T02:30:06;1003.70;;;382.50;;
37284;SDS011;23172;53.550;9.964;2023-10-09T02:35:19;1002.78;;;402.52;;
37284;SDS011;23172;53.550;9.964;2023-10-09T02:40:29;1745.45;;;587.20;;
37284;SDS011;23172;53.550;9.964;2023-10-09T02:45:34;1976.45;;;597.58;;
37284;SDS011;23172;53.550;9.964;2023-10-09T02:50:46;1650.15;;;290.73;;
37284;SDS011;23172;53.550;9.964;2023-10-09T02:55:52;1830.22;;;810.95;;
37284;SDS011;23172;53.550;9.964;2023-10-09T03:01:11;1551.22;;;290.65;;
37284;SDS011;23172;53.550;9.964;2023-10-09T03:06:14;1653.43;;;765.92;;
37284;SDS011;23172;53.550;9.964;2023-10-09T03:11:24;1999.90;;;999.90;;
37284;SDS011;23172;53.550;9.964;2023-10-09T03:16:26;1999.90;;;999.90;;
37284;SDS011;23172;53.550;9.964;2023-10-09T03:21:28;1999.90;;;999.90;;
37284;SDS011;23172;53.550;9.964;2023-10-09T03:26:31;1999.90;;;999.90;;
37284;SDS011;23172;53.550;9.964;2023-10-09T03:31:33;1999.90;;;999.90;;
37284;SDS011;23172;53.550;9.964;2023-10-09T03:36:36;1999.90;;;999.90;;
37284;SDS011;23172;53.550;9.964;2023-10-09T03:41:40;1999.90;;;999.90;;
37284;SDS011;23172;53.550;9.964;2023-10-09T03:46:42;1999.90;;;999.90;;
37284;SDS011;23172;53.550;9.964;2023-10-09T03:51:44;1999.90;;;999.90;;
37284;SDS011;23172;53.550;9.964;2023-10-09T03:56:48;1999.90;;;999.90;;
37284;SDS011;23172;53.550;9.964;2023-10-09T04:01:50;1999.90;;;999.90;;
37284;SDS011;23172;53.550;9.964;2023-10-09T04:06:53;1999.90;;;999.90;;
37284;SDS011;23172;53.550;9.964;2023-10-09T04:11:56;1999.90;;;999.90;;
37284;SDS011;23172;53.550;9.964;2023-10-09T04:17:18;1999.90;;;999.90;;
37284;SDS011;23172;53.550;9.964;2023-10-09T04:22:35;1999.90;;;999.90;;
37284;SDS011;23172;53.550;9.964;2023-10-09T04:27:41;1999.90;;;999.90;;
37284;SDS011;23172;53.550;9.964;2023-10-09T04:32:44;1999.90;;;999.90;;
37284;SDS011;23172;53.550;9.964;2023-10-09T04:37:46;1999.90;;;999.90;;
37284;SDS011;23172;53.550;9.964;2023-10-09T04:42:53;1999.90;;;999.90;;
37284;SDS011;23172;53.550;9.964;2023-10-09T04:47:59;1999.90;;;999.90;;
37284;SDS011;23172;53.550;9.964;2023-10-09T04:53:06;1999.90;;;999.90;;
37284;SDS011;23172;53.550;9.964;2023-10-09T04:58:24;1999.90;;;999.90;;
37284;SDS011;23172;53.550;9.964;2023-10-09T05:03:27;1999.90;;;999.90;;
37284;SDS011;23172;53.550;9.964;2023-10-09T05:08:29;1999.90;;;999.90;;
37284;SDS011;23172;53.550;9.964;2023-10-09T05:13:34;1999.90;;;999.90;;
37284;SDS011;23172;53.550;9.964;2023-10-09T05:18:57;1999.90;;;999.90;;
37284;SDS011;23172;53.550;9.964;2023-10-09T05:24:03;1999.90;;;999.90;;
37284;SDS011;23172;53.550;9.964;2023-10-09T05:29:21;1999.90;;;999.90;;
37284;SDS011;23172;53.550;9.964;2023-10-09T05:34:48;1999.90;;;999.90;;
37284;SDS011;23172;53.550;9.964;2023-10-09T05:40:04;1999.90;;;999.90;;
37284;SDS011;23172;53.550;9.964;2023-10-09T05:45:25;1999.90;;;999.90;;
37284;SDS011;23172;53.550;9.964;2023-10-09T05:50:45;1653.80;;;782.13;;
37284;SDS011;23172;53.550;9.964;2023-10-09T05:56:10;454.02;;;117.60;;
37284;SDS011;23172;53.550;9.964;2023-10-09T06:01:46;1423.72;;;453.42;;
37284;SDS011;23172;53.550;9.964;2023-10-09T06:07:05;968.85;;;349.00;;
37284;SDS011;23172;53.550;9.964;2023-10-09T06:12:14;766.67;;;309.08;;
37284;SDS011;23172;53.550;9.964;2023-10-09T06:17:33;855.60;;;336.30;;
37284;SDS011;23172;53.550;9.964;2023-10-09T06:22:50;548.67;;;187.98;;
37284;SDS011;23172;53.550;9.964;2023-10-09T06:27:58;424.20;;;183.05;;
37284;SDS011;23172;53.550;9.964;2023-10-09T06:33:02;1743.70;;;560.20;;
37284;SDS011;23172;53.550;9.964;2023-10-09T06:38:20;1160.70;;;345.92;;
37284;SDS011;23172;53.550;9.964;2023-10-09T06:43:40;1157.15;;;373.80;;
37284;SDS011;23172;53.550;9.964;2023-10-09T06:48:49;1310.75;;;445.23;;
37284;SDS011;23172;53.550;9.964;2023-10-09T06:53:57;737.08;;;252.05;;
37284;SDS011;23172;53.550;9.964;2023-10-09T06:59:04;954.63;;;332.52;;
37284;SDS011;23172;53.550;9.964;2023-10-09T07:04:17;1512.70;;;463.65;;
37284;SDS011;23172;53.550;9.964;2023-10-09T07:09:42;1799.20;;;615.88;;
37284;SDS011;23172;53.550;9.964;2023-10-09T07:15:04;1377.20;;;493.70;;
37284;SDS011;23172;53.550;9.964;2023-10-09T07:20:22;1862.28;;;580.90;;
37284;SDS011;23172;53.550;9.964;2023-10-09T07:25:37;1588.82;;;539.70;;
37284;SDS011;23172;53.550;9.964;2023-10-09T07:30:55;1926.85;;;576.75;;
37284;SDS011;23172;53.550;9.964;2023-10-09T07:36:01;1634.40;;;592.60;;
37284;SDS011;23172;53.550;9.964;2023-10-09T07:41:08;1880.28;;;534.58;;
37284;SDS011;23172;53.550;9.964;2023-10-09T07:46:23;1748.72;;;510.55;;
37284;SDS011;23172;53.550;9.964;2023-10-09T07:51:34;1991.78;;;590.83;;
37284;SDS011;23172;53.550;9.964;2023-10-09T07:56:37;1536.15;;;534.35;;
37284;SDS011;23172;53.550;9.964;2023-10-09T08:01:41;1559.45;;;520.10;;
37284;SDS011;23172;53.550;9.964;2023-10-09T08:06:54;1998.25;;;628.05;;
37284;SDS011;23172;53.550;9.964;2023-10-09T08:11:59;1999.90;;;628.22;;
37284;SDS011;23172;53.550;9.964;2023-10-09T08:17:36;1520.38;;;495.42;;
37284;SDS011;23172;53.550;9.964;2023-10-09T08:22:39;1679.40;;;543.38;;
37284;SDS011;23172;53.550;9.964;2023-10-09T08:27:50;1606.03;;;563.05;;
37284;SDS011;23172;53.550;9.964;2023-10-09T08:32:55;1822.05;;;514.08;;
37284;SDS011;23172;53.550;9.964;2023-10-09T08:38:03;1179.15;;;400.95;;
37284;SDS011;23172;53.550;9.964;2023-10-09T08:43:09;1270.25;;;477.00;;
37284;SDS011;23172;53.550;9.964;2023-10-09T08:48:14;1736.68;;;560.25;;
37284;SDS011;23172;53.550;9.964;2023-10-09T08:53:19;1212.38;;;490.75;;
37284;SDS011;23172;53.550;9.964;2023-10-09T08:58:21;1259.07;;;482.38;;
37284;SDS011;23172;53.550;9.964;2023-10-09T09:03:27;1130.75;;;463.48;;
37284;SDS011;23172;53.550;9.964;2023-10-09T09:08:40;1099.50;;;445.17;;
37284;SDS011;23172;53.550;9.964;2023-10-09T09:13:45;892.17;;;352.05;;
37284;SDS011;23172;53.550;9.964;2023-10-09T09:18:53;1147.82;;;454.80;;
37284;SDS011;23172;53.550;9.964;2023-10-09T09:24:05;882.42;;;363.00;;
37284;SDS011;23172;53.550;9.964;2023-10-09T09:29:16;1316.28;;;527.63;;
37284;SDS011;23172;53.550;9.964;2023-10-09T09:34:20;1177.20;;;467.48;;
37284;SDS011;23172;53.550;9.964;2023-10-09T09:39:27;855.83;;;373.02;;
37284;SDS011;23172;53.550;9.964;2023-10-09T09:44:30;1060.95;;;348.13;;
37284;SDS011;23172;53.550;9.964;2023-10-09T09:49:35;1115.60;;;422.33;;
37284;SDS011;23172;53.550;9.964;2023-10-09T09:54:41;991.05;;;394.65;;
37284;SDS011;23172;53.550;9.964;2023-10-09T09:59:42;834.42;;;363.73;;
37284;SDS011;23172;53.550;9.964;2023-10-09T10:04:53;927.38;;;373.05;;
37284;SDS011;23172;53.550;9.964;2023-10-09T10:09:59;1088.32;;;394.10;;
37284;SDS011;23172;53.550;9.964;2023-10-09T10:15:08;723.88;;;308.35;;
37284;SDS011;23172;53.550;9.964;2023-10-09T10:20:14;740.40;;;327.52;;
37284;SDS011;23172;53.550;9.964;2023-10-09T10:25:35;851.00;;;327.95;;
37284;SDS011;23172;53.550;9.964;2023-10-09T10:30:45;731.53;;;289.05;;
37284;SDS011;23172;53.550;9.964;2023-10-09T10:35:47;765.03;;;302.70;;
37284;SDS011;23172;53.550;9.964;2023-10-09T10:40:54;824.60;;;326.40;;
37284;SDS011;23172;53.550;9.964;2023-10-09T10:46:02;687.97;;;273.85;;
37284;SDS011;23172;53.550;9.964;2023-10-09T10:51:14;598.65;;;270.60;;
37284;SDS011;23172;53.550;9.964;2023-10-09T10:56:23;573.67;;;230.23;;
37284;SDS011;23172;53.550;9.964;2023-10-09T11:01:35;520.67;;;253.82;;
37284;SDS011;23172;53.550;9.964;2023-10-09T11:06:53;666.55;;;258.20;;
37284;SDS011;23172;53.550;9.964;2023-10-09T11:12:05;559.60;;;259.30;;
37284;SDS011;23172;53.550;9.964;2023-10-09T11:17:21;618.45;;;251.60;;
37284;SDS011;23172;53.550;9.964;2023-10-09T11:22:25;318.30;;;164.77;;
37284;SDS011;23172;53.550;9.964;2023-10-09T11:27:39;370.67;;;166.75;;
37284;SDS011;23172;53.550;9.964;2023-10-09T11:32:50;349.98;;;150.80;;
37284;SDS011;23172;53.550;9.964;2023-10-09T11:37:56;362.95;;;154.05;;
37284;SDS011;23172;53.550;9.964;2023-10-09T11:43:01;403.98;;;150.27;;
37284;SDS011;23172;53.550;9.964;2023-10-09T11:48:15;501.27;;;199.90;;
37284;SDS011;23172;53.550;9.964;2023-10-09T11:53:26;387.75;;;153.02;;
37284;SDS011;23172;53.550;9.964;2023-10-09T11:58:36;149.90;;;65.32;;
37284;SDS011;23172;53.550;9.964;2023-10-09T12:03:40;381.33;;;142.27;;
37284;SDS011;23172;53.550;9.964;2023-10-09T12:08:43;356.83;;;152.80;;
37284;SDS011;23172;53.550;9.964;2023-10-09T12:13:48;253.82;;;106.15;;
37284;SDS011;23172;53.550;9.964;2023-10-09T12:18:56;338.35;;;169.18;;
37284;SDS011;23172;53.550;9.964;2023-10-09T12:23:59;313.52;;;127.85;;
37284;SDS011;23172;53.550;9.964;2023-10-09T12:29:02;279.05;;;107.65;;
37284;SDS011;23172;53.550;9.964;2023-10-09T12:34:11;255.55;;;100.30;;
37284;SDS011;23172;53.550;9.964;2023-10-09T12:39:16;247.45;;;106.15;;
37284;SDS011;23172;53.550;9.964;2023-10-09T12:44:20;257.80;;;116.40;;
37284;SDS011;23172;53.550;9.964;2023-10-09T12:49:22;301.15;;;80.47;;
37284;SDS011;23172;53.550;9.964;2023-10-09T12:54:26;277.27;;;100.78;;
37284;SDS011;23172;53.550;9.964;2023-10-09T12:59:29;240.85;;;77.80;;
37284;SDS011;23172;53.550;9.964;2023-10-09T13:04:31;276.40;;;90.40;;
37284;SDS011;23172;53.550;9.964;2023-10-09T13:09:35;220.50;;;84.22;;
37284;SDS011;23172;53.550;9.964;2023-10-09T13:14:44;173.05;;;57.47;;
37284;SDS011;23172;53.550;9.964;2023-10-09T13:19:49;180.80;;;33.65;;
37284;SDS011;23172;53.550;9.964;2023-10-09T13:24:50;162.60;;;40.80;;
37284;SDS011;23172;53.550;9.964;2023-10-09T13:30:05;172.32;;;34.55;;
37284;SDS011;23172;53.550;9.964;2023-10-09T13:35:10;94.07;;;29.60;;
37284;SDS011;23172;53.550;9.964;2023-10-09T13:40:14;159.55;;;29.35;;
37284;SDS011;23172;53.550;9.964;2023-10-09T13:45:28;168.88;;;33.33;;
37284;SDS011;23172;53.550;9.964;2023-10-09T13:50:30;167.60;;;29.40;;
37284;SDS011;23172;53.550;9.964;2023-10-09T13:55:36;108.80;;;28.65;;
37284;SDS011;23172;53.550;9.964;2023-10-09T14:00:44;97.88;;;27.08;;
37284;SDS011;23172;53.550;9.964;2023-10-09T14:05:50;152.40;;;28.00;;
37284;SDS011;23172;53.550;9.964;2023-10-09T14:10:57;142.25;;;25.73;;
37284;SDS011;23172;53.550;9.964;2023-10-09T14:16:01;166.90;;;28.88;;
37284;SDS011;23172;53.550;9.964;2023-10-09T14:21:03;89.95;;;20.10;;
37284;SDS011;23172;53.550;9.964;2023-10-09T14:26:16;123.47;;;26.60;;
37284;SDS011;23172;53.550;9.964;2023-10-09T14:31:19;128.55;;;27.15;;
37284;SDS011;23172;53.550;9.964;2023-10-09T14:36:27;91.10;;;24.73;;
37284;SDS011;23172;53.550;9.964;2023-10-09T14:41:33;126.90;;;23.50;;
37284;SDS011;23172;53.550;9.964;2023-10-09T14:46:37;94.10;;;28.90;;
37284;SDS011;23172;53.550;9.964;2023-10-09T14:51:38;125.32;;;26.25;;
37284;SDS011;23172;53.550;9.964;2023-10-09T14:56:41;103.45;;;24.25;;
37284;SDS011;23172;53.550;9.964;2023-10-09T15:01:44;110.70;;;23.67;;
37284;SDS011;23172;53.550;9.964;2023-10-09T15:06:48;134.30;;;24.77;;
37284;SDS011;23172;53.550;9.964;2023-10-09T15:11:51;147.15;;;27.92;;
37284;SDS011;23172;53.550;9.964;2023-10-09T15:16:54;76.68;;;25.05;;
37284;SDS011;23172;53.550;9.964;2023-10-09T15:21:56;101.97;;;29.88;;
37284;SDS011;23172;53.550;9.964;2023-10-09T15:26:59;138.52;;;30.33;;
37284;SDS011;23172;53.550;9.964;2023-10-09T15:32:02;126.97;;;25.60;;
37284;SDS011;23172;53.550;9.964;2023-10-09T15:37:05;60.92;;;18.50;;
37284;SDS011;23172;53.550;9.964;2023-10-09T15:42:07;120.65;;;29.20;;
37284;SDS011;23172;53.550;9.964;2023-10-09T15:47:14;122.57;;;31.27;;
37284;SDS011;23172;53.550;9.964;2023-10-09T15:52:16;107.93;;;24.00;;
37284;SDS011;23172;53.550;9.964;2023-10-09T15:57:20;88.45;;;23.70;;
37284;SDS011;23172;53.550;9.964;2023-10-09T16:02:24;136.13;;;26.83;;
37284;SDS011;23172;53.550;9.964;2023-10-09T16:07:26;120.55;;;29.83;;
37284;SDS011;23172;53.550;9.964;2023-10-09T16:12:28;134.38;;;25.63;;
37284;SDS011;23172;53.550;9.964;2023-10-09T16:17:32;131.93;;;25.40;;
37284;SDS011;23172;53.550;9.964;2023-10-09T16:22:34;115.43;;;23.08;;
37284;SDS011;23172;53.550;9.964;2023-10-09T16:27:37;107.97;;;25.75;;
37284;SDS011;23172;53.550;9.964;2023-10-09T16:32:41;124.88;;;26.92;;
37284;SDS011;23172;53.550;9.964;2023-10-09T16:37:43;7.20;;;5.20;;
37284;SDS011;23172;53.550;9.964;2023-10-09T16:42:47;72.88;;;20.80;;
37284;SDS011;23172;53.550;9.964;2023-10-09T16:47:54;73.60;;;16.92;;
37284;SDS011;23172;53.550;9.964;2023-10-09T16:52:59;90.90;;;20.02;;
37284;SDS011;23172;53.550;9.964;2023-10-09T16:58:00;68.85;;;16.13;;
37284;SDS011;23172;53.550;9.964;2023-10-09T17:03:04;65.30;;;16.80;;
37284;SDS011;23172;53.550;9.964;2023-10-09T17:08:06;156.00;;;20.25;;
37284;SDS011;23172;53.550;9.964;2023-10-09T17:13:09;35.55;;;11.23;;
37284;SDS011;23172;53.550;9.964;2023-10-09T17:18:13;91.60;;;9.02;;
37284;SDS011;23172;53.550;9.964;2023-10-09T17:23:15;15.25;;;7.65;;
37284;SDS011;23172;53.550;9.964;2023-10-09T17:28:17;194.07;;;48.47;;
37284;SDS011;23172;53.550;9.964;2023-10-09T17:33:20;193.57;;;35.55;;
37284;SDS011;23172;53.550;9.964;2023-10-09T17:38:23;190.07;;;31.83;;
37284;SDS011;23172;53.550;9.964;2023-10-09T17:43:25;199.73;;;47.03;;
37284;SDS011;23172;53.550;9.964;2023-10-09T17:48:28;158.10;;;30.23;;
37284;SDS011;23172;53.550;9.964;2023-10-09T17:53:31;189.18;;;27.10;;
37284;SDS011;23172;53.550;9.964;2023-10-09T17:58:33;172.77;;;33.72;;
37284;SDS011;23172;53.550;9.964;2023-10-09T18:03:36;156.32;;;34.60;;
37284;SDS011;23172;53.550;9.964;2023-10-09T18:08:38;132.98;;;35.13;;
37284;SDS011;23172;53.550;9.964;2023-10-09T18:13:39;205.60;;;44.17;;
37284;SDS011;23172;53.550;9.964;2023-10-09T18:18:43;200.70;;;55.28;;
37284;SDS011;23172;53.550;9.964;2023-10-09T18:23:46;117.05;;;35.22;;
37284;SDS011;23172;53.550;9.964;2023-10-09T18:28:48;171.90;;;40.15;;
37284;SDS011;23172;53.550;9.964;2023-10-09T18:33:51;147.80;;;33.85;;
37284;SDS011;23172;53.550;9.964;2023-10-09T18:38:53;257.10;;;54.60;;
37284;SDS011;23172;53.550;9.964;2023-10-09T18:43:55;183.05;;;42.15;;
37284;SDS011;23172;53.550;9.964;2023-10-09T18:49:02;205.90;;;42.00;;
37284;SDS011;23172;53.550;9.964;2023-10-09T18:54:04;183.75;;;51.35;;
37284;SDS011;23172;53.550;9.964;2023-10-09T18:59:06;254.63;;;53.38;;
37284;SDS011;23172;53.550;9.964;2023-10-09T19:04:10;224.77;;;59.45;;
37284;SDS011;23172;53.550;9.964;2023-10-09T19:09:12;197.55;;;48.35;;
37284;SDS011;23172;53.550;9.964;2023-10-09T19:14:20;250.75;;;61.67;;
37284;SDS011;23172;53.550;9.964;2023-10-09T19:19:23;249.02;;;56.35;;
37284;SDS011;23172;53.550;9.964;2023-10-09T19:24:25;166.07;;;46.95;;
37284;SDS011;23172;53.550;9.964;2023-10-09T19:29:27;233.23;;;50.40;;
37284;SDS011;23172;53.550;9.964;2023-10-09T19:34:30;270.00;;;76.78;;
37284;SDS011;23172;53.550;9.964;2023-10-09T19:39:34;167.85;;;66.57;;
37284;SDS011;23172;53.550;9.964;2023-10-09T19:44:36;259.80;;;57.03;;
37284;SDS011;23172;53.550;9.964;2023-10-09T19:49:40;257.67;;;63.55;;
37284;SDS011;23172;53.550;9.964;2023-10-09T19:54:42;176.52;;;57.78;;
37284;SDS011;23172;53.550;9.964;2023-10-09T19:59:44;255.10;;;71.53;;
37284;SDS011;23172;53.550;9.964;2023-10-09T20:04:49;230.05;;;75.15;;
37284;SDS011;23172;53.550;9.964;2023-10-09T20:09:51;155.82;;;51.28;;
37284;SDS011;23172;53.550;9.964;2023-10-09T20:14:58;189.85;;;48.90;;
37284;SDS011;23172;53.550;9.964;2023-10-09T20:20:01;252.73;;;65.25;;
37284;SDS011;23172;53.550;9.964;2023-10-09T20:25:07;187.80;;;62.63;;
37284;SDS011;23172;53.550;9.964;2023-10-09T20:30:13;203.38;;;61.67;;
37284;SDS011;23172;53.550;9.964;2023-10-09T20:35:16;208.82;;;74.22;;
37284;SDS011;23172;53.550;9.964;2023-10-09T20:40:19;259.00;;;73.05;;
37284;SDS011;23172;53.550;9.964;2023-10-09T20:45:22;228.73;;;62.42;;
37284;SDS011;23172;53.550;9.964;2023-10-09T20:50:26;254.63;;;64.05;;
37284;SDS011;23172;53.550;9.964;2023-10-09T20:55:27;218.70;;;67.80;;
37284;SDS011;23172;53.550;9.964;2023-10-09T21:00:29;191.20;;;53.17;;
37284;SDS011;23172;53.550;9.964;2023-10-09T21:05:33;192.90;;;48.10;;
37284;SDS011;23172;53.550;9.964;2023-10-09T21:10:35;182.75;;;56.03;;
37284;SDS011;23172;53.550;9.964;2023-10-09T21:15:40;211.43;;;82.38;;
37284;SDS011;23172;53.550;9.964;2023-10-09T21:20:46;271.90;;;81.07;;
37284;SDS011;23172;53.550;9.964;2023-10-09T21:25:48;238.88;;;62.53;;
37284;SDS011;23172;53.550;9.964;2023-10-09T21:30:52;130.27;;;41.17;;
37284;SDS011;23172;53.550;9.964;2023-10-09T21:35:55;202.90;;;57.80;;
37284;SDS011;23172;53.550;9.964;2023-10-09T21:40:57;182.38;;;56.55;;
37284;SDS011;23172;53.550;9.964;2023-10-09T21:46:01;205.38;;;67.60;;
37284;SDS011;23172;53.550;9.964;2023-10-09T21:51:04;149.63;;;61.13;;
37284;SDS011;23172;53.550;9.964;2023-10-09T21:56:09;213.38;;;64.85;;
37284;SDS011;23172;53.550;9.964;2023-10-09T22:01:11;230.07;;;65.63;;
37284;SDS011;23172;53.550;9.964;2023-10-09T22:06:14;226.80;;;67.57;;
37284;SDS011;23172;53.550;9.964;2023-10-09T22:11:16;240.43;;;78.93;;
37284;SDS011;23172;53.550;9.964;2023-10-09T22:16:18;195.80;;;65.05;;
37284;SDS011;23172;53.550;9.964;2023-10-09T22:21:23;229.00;;;71.78;;
37284;SDS011;23172;53.550;9.964;2023-10-09T22:26:25;280.17;;;62.65;;
37284;SDS011;23172;53.550;9.964;2023-10-09T22:31:27;210.68;;;68.97;;
37284;SDS011;23172;53.550;9.964;2023-10-09T22:36:30;274.20;;;88.65;;
37284;SDS011;23172;53.550;9.964;2023-10-09T22:41:38;208.00;;;56.13;;
37284;SDS011;23172;53.550;9.964;2023-10-09T22:46:40;190.85;;;85.13;;
37284;SDS011;23172;53.550;9.964;2023-10-09T22:51:44;154.73;;;50.15;;
37284;SDS011;23172;53.550;9.964;2023-10-09T22:56:50;221.63;;;64.82;;
37284;SDS011;23172;53.550;9.964;2023-10-09T23:01:53;228.48;;;51.38;;
37284;SDS011;23172;53.550;9.964;2023-10-09T23:06:59;211.90;;;62.83;;
37284;SDS011;23172;53.550;9.964;2023-10-09T23:12:12;196.00;;;78.15;;
37284;SDS011;23172;53.550;9.964;2023-10-09T23:17:20;182.65;;;75.45;;
37284;SDS011;23172;53.550;9.964;2023-10-09T23:22:44;275.48;;;87.85;;
37284;SDS011;23172;53.550;9.964;2023-10-09T23:27:49;281.00;;;61.22;;
37284;SDS011;23172;53.550;9.964;2023-10-09T23:32:51;224.85;;;60.20;;
37284;SDS011;23172;53.550;9.964;2023-10-09T23:38:08;234.80;;;81.32;;
37284;SDS011;23172;53.550;9.964;2023-10-09T23:43:19;177.95;;;66.25;;
37284;SDS011;23172;53.550;9.964;2023-10-09T23:48:27;184.10;;;81.88;;
37284;SDS011;23172;53.550;9.964;2023-10-09T23:53:31;280.77;;;68.32;;
